createdAt,value
2023-07-24T00:00:53.167Z,7.40
2023-07-24T00:03:21.073Z,8.83
2023-07-24T00:05:49.320Z,8.20
2023-07-24T00:08:18.032Z,9.43
2023-07-24T00:10:46.214Z,7.20
2023-07-24T00:13:14.008Z,10.33
2023-07-24T00:15:41.841Z,7.80
2023-07-24T00:18:09.942Z,5.97
2023-07-24T00:20:37.943Z,7.30
2023-07-24T00:23:05.727Z,7.67
2023-07-24T00:25:33.640Z,6.53
2023-07-24T00:28:01.820Z,8.90
2023-07-24T00:30:29.666Z,5.10
2023-07-24T00:32:57.581Z,8.57
2023-07-24T00:35:26.647Z,11.90
2023-07-24T00:37:54.602Z,8.20
2023-07-24T00:40:22.510Z,6.30
2023-07-24T00:42:50.597Z,7.60
2023-07-24T00:45:18.953Z,11.60
2023-07-24T00:47:47.675Z,6.10
2023-07-24T00:50:16.437Z,7.90
2023-07-24T00:52:44.972Z,7.80
2023-07-24T00:55:17.609Z,8.77
2023-07-24T00:57:46.326Z,7.80
2023-07-24T01:00:15.183Z,9.03
2023-07-24T01:02:44.815Z,7.30
2023-07-24T01:05:16.453Z,8.03
2023-07-24T01:07:44.715Z,12.53
2023-07-24T01:10:13.560Z,8.07
2023-07-24T01:13:02.887Z,8.27
2023-07-24T01:15:49.982Z,9.33
2023-07-24T01:18:23.080Z,8.13
2023-07-24T01:21:01.660Z,12.73
2023-07-24T01:24:03.923Z,10.90
2023-07-24T01:26:33.775Z,11.27
2023-07-24T01:29:01.774Z,9.73
2023-07-24T01:31:29.555Z,12.50
2023-07-24T01:33:57.531Z,9.37
2023-07-24T01:36:26.099Z,11.57
2023-07-24T01:38:55.429Z,11.00
2023-07-24T01:41:24.618Z,10.27
2023-07-24T01:43:52.551Z,9.73
2023-07-24T01:46:20.425Z,9.97
2023-07-24T01:48:48.553Z,11.87
2023-07-24T01:51:16.905Z,9.33
2023-07-24T01:53:44.842Z,8.77
2023-07-24T01:56:12.683Z,12.33
2023-07-24T01:58:40.639Z,13.30
2023-07-24T02:01:08.392Z,9.70
2023-07-24T02:03:36.668Z,12.50
2023-07-24T02:06:04.727Z,9.50
2023-07-24T02:08:33.151Z,8.53
2023-07-24T02:11:01.086Z,7.67
2023-07-24T02:13:29.010Z,9.23
2023-07-24T02:16:00.228Z,9.37
2023-07-24T02:18:30.766Z,9.67
2023-07-24T02:21:02.094Z,13.60
2023-07-24T02:23:32.560Z,10.10
2023-07-24T02:26:00.958Z,12.13
2023-07-24T02:28:28.885Z,11.70
2023-07-24T02:30:57.890Z,8.43
2023-07-24T02:33:27.889Z,8.33
2023-07-24T02:35:55.866Z,10.27
2023-07-24T02:38:23.646Z,12.63
2023-07-24T02:40:51.612Z,8.33
2023-07-24T02:43:19.390Z,11.73
2023-07-24T02:45:47.377Z,9.70
2023-07-24T02:48:15.507Z,10.20
2023-07-24T02:50:43.489Z,10.60
2023-07-24T02:53:11.977Z,7.97
2023-07-24T02:55:44.904Z,7.93
2023-07-24T02:58:16.405Z,9.80
2023-07-24T03:00:45.416Z,8.63
2023-07-24T03:03:13.152Z,10.33
2023-07-24T03:05:41.168Z,9.70
2023-07-24T03:08:08.893Z,10.60
2023-07-24T03:10:36.827Z,9.97
2023-07-24T03:13:04.597Z,10.87
2023-07-24T03:15:32.587Z,11.30
2023-07-24T03:18:00.414Z,15.60
2023-07-24T03:20:28.334Z,11.30
2023-07-24T03:22:56.340Z,8.97
2023-07-24T03:25:24.638Z,11.70
2023-07-24T03:27:52.377Z,9.93
2023-07-24T03:30:21.720Z,11.37
2023-07-24T03:32:49.716Z,8.17
2023-07-24T03:35:18.238Z,9.00
2023-07-24T03:37:46.099Z,13.07
2023-07-24T03:40:15.168Z,12.63
2023-07-24T03:42:43.716Z,10.03
2023-07-24T03:45:12.142Z,13.67
2023-07-24T03:47:42.178Z,12.03
2023-07-24T03:50:11.429Z,17.83
2023-07-24T03:52:39.454Z,12.23
2023-07-24T03:55:09.330Z,12.23
2023-07-24T03:57:38.002Z,12.93
2023-07-24T04:00:08.525Z,11.30
2023-07-24T04:02:42.795Z,11.67
2023-07-24T04:05:10.668Z,16.57
2023-07-24T04:07:38.695Z,10.53
2023-07-24T04:10:08.505Z,14.10
2023-07-24T04:12:36.343Z,10.33
2023-07-24T04:15:04.748Z,14.30
2023-07-24T04:17:33.740Z,13.80
2023-07-24T04:20:01.615Z,9.73
2023-07-24T04:22:29.608Z,12.17
2023-07-24T04:24:57.423Z,12.17
2023-07-24T04:27:25.344Z,14.63
2023-07-24T04:29:53.125Z,14.17
2023-07-24T04:32:21.372Z,16.30
2023-07-24T04:34:49.152Z,13.93
2023-07-24T04:37:16.962Z,14.37
2023-07-24T04:39:44.853Z,11.33
2023-07-24T04:42:13.835Z,11.20
2023-07-24T04:44:41.650Z,12.23
2023-07-24T04:47:09.761Z,11.63
2023-07-24T04:49:38.001Z,18.23
2023-07-24T04:52:06.898Z,16.50
2023-07-24T04:54:35.132Z,13.23
2023-07-24T04:57:02.815Z,12.37
2023-07-24T04:59:30.654Z,10.97
2023-07-24T05:01:58.524Z,15.13
2023-07-24T05:04:26.575Z,12.83
2023-07-24T05:06:54.530Z,13.60
2023-07-24T05:09:22.715Z,13.90
2023-07-24T05:11:50.942Z,13.40
2023-07-24T05:14:18.743Z,14.33
2023-07-24T05:16:46.784Z,12.00
2023-07-24T05:19:14.586Z,11.00
2023-07-24T05:21:42.552Z,11.37
2023-07-24T05:24:10.194Z,16.83
2023-07-24T05:26:38.188Z,11.50
2023-07-24T05:29:06.169Z,11.97
2023-07-24T05:31:37.485Z,13.20
2023-07-24T05:34:06.394Z,12.50
2023-07-24T05:36:34.331Z,13.23
2023-07-24T05:39:02.393Z,13.37
2023-07-24T05:41:30.297Z,10.53
2023-07-24T05:43:58.043Z,12.80
2023-07-24T05:46:26.107Z,10.50
2023-07-24T05:48:54.175Z,11.80
2023-07-24T05:51:21.880Z,12.37
2023-07-24T05:53:49.707Z,12.83
2023-07-24T05:56:17.581Z,14.03
2023-07-24T05:58:45.325Z,13.60
2023-07-24T06:01:13.436Z,9.57
2023-07-24T06:03:41.297Z,11.87
2023-07-24T06:06:09.458Z,11.33
2023-07-24T06:08:37.459Z,14.80
2023-07-24T06:11:06.610Z,9.70
2023-07-24T06:13:34.350Z,10.63
2023-07-24T06:16:02.399Z,9.13
2023-07-24T06:18:30.430Z,8.87
2023-07-24T06:20:58.403Z,10.40
2023-07-24T06:23:26.376Z,9.00
2023-07-24T06:25:54.823Z,7.50
2023-07-24T06:28:22.862Z,12.93
2023-07-24T06:30:55.383Z,9.33
2023-07-24T06:33:23.416Z,11.47
2023-07-24T06:35:53.734Z,11.00
2023-07-24T06:38:22.854Z,12.77
2023-07-24T06:40:51.696Z,10.53
2023-07-24T06:43:19.636Z,9.03
2023-07-24T06:45:47.560Z,14.70
2023-07-24T06:48:15.397Z,13.30
2023-07-24T06:50:43.400Z,9.53
2023-07-24T06:53:12.624Z,14.80
2023-07-24T06:55:40.816Z,12.57
2023-07-24T06:58:08.959Z,11.20
2023-07-24T07:00:36.774Z,12.60
2023-07-24T07:03:05.011Z,14.93
2023-07-24T07:05:34.354Z,8.00
2023-07-24T07:08:02.343Z,8.63
2023-07-24T07:10:32.455Z,10.10
2023-07-24T07:13:00.394Z,17.37
2023-07-24T07:15:28.181Z,10.27
2023-07-24T07:17:56.889Z,10.47
2023-07-24T07:20:25.521Z,12.00
2023-07-24T07:22:53.502Z,13.43
2023-07-24T07:25:21.491Z,11.67
2023-07-24T07:27:49.451Z,13.80
2023-07-24T07:30:17.734Z,10.80
2023-07-24T07:32:45.799Z,9.67
2023-07-24T07:35:13.748Z,8.77
2023-07-24T07:37:41.631Z,9.00
2023-07-24T07:40:10.360Z,6.57
2023-07-24T07:42:39.866Z,9.07
2023-07-24T07:45:09.437Z,6.73
2023-07-24T07:47:38.138Z,7.00
2023-07-24T07:50:06.945Z,7.47
2023-07-24T07:52:34.894Z,5.73
2023-07-24T07:55:03.066Z,6.47
2023-07-24T07:57:30.979Z,8.80
2023-07-24T07:59:58.809Z,9.30
2023-07-24T08:02:26.749Z,6.60
2023-07-24T08:04:54.814Z,6.43
2023-07-24T08:07:22.596Z,6.00
2023-07-24T08:09:51.007Z,6.80
2023-07-24T08:12:19.181Z,6.90
2023-07-24T08:14:47.322Z,5.23
2023-07-24T08:17:15.246Z,6.60
2023-07-24T08:19:43.295Z,8.43
2023-07-24T08:22:13.530Z,8.00
2023-07-24T08:24:41.687Z,7.13
2023-07-24T08:27:10.237Z,7.77
2023-07-24T08:29:39.152Z,9.30
2023-07-24T08:32:08.150Z,7.97
2023-07-24T08:34:35.996Z,7.70
2023-07-24T08:37:04.065Z,11.13
2023-07-24T08:39:33.079Z,11.17
2023-07-24T08:42:01.577Z,10.00
2023-07-24T08:44:32.409Z,8.60
2023-07-24T08:47:01.940Z,9.57
2023-07-24T08:49:32.473Z,9.93
2023-07-24T08:52:02.759Z,7.60
2023-07-24T08:54:33.823Z,6.20
2023-07-24T08:57:03.751Z,4.93
2023-07-24T08:59:31.618Z,3.03
2023-07-24T09:01:59.536Z,3.50
2023-07-24T09:04:27.884Z,3.10
2023-07-24T09:06:59.641Z,4.10
2023-07-24T09:09:33.105Z,3.90
2023-07-24T09:12:01.463Z,2.70
2023-07-24T09:14:32.857Z,3.40
2023-07-24T09:17:11.484Z,4.23
2023-07-24T09:19:40.816Z,2.83
2023-07-24T09:22:15.972Z,4.20
2023-07-24T09:24:59.245Z,4.30
2023-07-24T09:27:32.102Z,3.43
2023-07-24T09:30:01.063Z,5.10
2023-07-24T09:32:32.215Z,8.70
2023-07-24T09:35:00.152Z,5.97
2023-07-24T09:37:36.736Z,7.77
2023-07-24T09:40:08.679Z,9.03
2023-07-24T09:42:58.413Z,8.90
2023-07-24T09:45:30.072Z,6.83
2023-07-24T09:48:06.324Z,5.80
2023-07-24T09:50:37.619Z,7.73
2023-07-24T09:53:14.567Z,5.53
2023-07-24T09:56:06.119Z,5.23
2023-07-24T09:58:42.137Z,5.70
2023-07-24T10:01:12.447Z,6.80
2023-07-24T10:03:51.048Z,4.27
2023-07-24T10:06:19.531Z,3.60
2023-07-24T10:08:49.491Z,3.53
2023-07-24T10:11:17.733Z,4.03
2023-07-24T10:13:47.618Z,4.10
2023-07-24T10:16:15.751Z,4.00
2023-07-24T10:18:48.182Z,3.27
2023-07-24T10:21:16.223Z,3.00
2023-07-24T10:23:50.222Z,3.77
2023-07-24T10:26:18.287Z,5.07
2023-07-24T10:28:50.292Z,3.53
2023-07-24T10:31:28.321Z,4.10
2023-07-24T10:33:58.385Z,6.53
2023-07-24T10:36:26.201Z,3.40
2023-07-24T10:38:57.946Z,4.23
2023-07-24T10:41:38.851Z,3.97
2023-07-24T10:44:07.217Z,3.80
2023-07-24T10:46:44.122Z,4.93
2023-07-24T10:49:13.326Z,4.87
2023-07-24T10:51:41.294Z,4.20
2023-07-24T10:54:09.372Z,6.27
2023-07-24T10:56:39.113Z,6.30
2023-07-24T10:59:07.669Z,5.53
2023-07-24T11:01:36.356Z,9.40
2023-07-24T11:04:05.198Z,8.90
2023-07-24T11:06:33.277Z,9.30
2023-07-24T11:09:02.162Z,9.60
2023-07-24T11:11:37.278Z,9.03
2023-07-24T11:14:06.136Z,6.63
2023-07-24T11:16:35.209Z,6.27
2023-07-24T11:19:03.181Z,5.40
2023-07-24T11:21:32.195Z,6.03
2023-07-24T11:24:01.076Z,8.30
2023-07-24T11:26:29.696Z,9.00
2023-07-24T11:28:57.629Z,10.00
2023-07-24T11:31:25.516Z,8.87
2023-07-24T11:33:55.539Z,8.70
2023-07-24T11:36:24.319Z,7.70
2023-07-24T11:38:52.531Z,8.07
2023-07-24T11:41:20.589Z,9.27
2023-07-24T11:43:52.480Z,12.10
2023-07-24T11:46:33.639Z,7.00
2023-07-24T11:49:01.633Z,8.40
2023-07-24T11:51:30.574Z,7.70
2023-07-24T11:54:13.233Z,6.93
2023-07-24T11:56:41.640Z,5.47
2023-07-24T11:59:16.807Z,6.97
2023-07-24T12:01:49.912Z,7.80
2023-07-24T12:04:19.279Z,16.33
2023-07-24T12:06:47.771Z,6.60
2023-07-24T12:09:15.808Z,6.10
2023-07-24T12:11:47.287Z,7.60
2023-07-24T12:14:16.237Z,5.80
2023-07-24T12:16:45.017Z,6.00
2023-07-24T12:19:13.182Z,9.23
2023-07-24T12:21:41.488Z,8.10
2023-07-24T12:24:09.765Z,14.20
2023-07-24T12:26:38.030Z,7.90
2023-07-24T12:29:05.863Z,6.80
2023-07-24T12:31:34.396Z,7.13
2023-07-24T12:34:02.817Z,5.80
2023-07-24T12:36:30.697Z,5.63
2023-07-24T12:38:58.821Z,5.40
2023-07-24T12:41:26.580Z,4.97
2023-07-24T12:43:54.790Z,5.40
2023-07-24T12:46:22.897Z,5.53
2023-07-24T12:48:50.815Z,5.83
2023-07-24T12:51:18.966Z,6.47
2023-07-24T12:53:58.813Z,6.63
2023-07-24T12:56:34.881Z,4.97
2023-07-24T12:59:04.669Z,6.37
2023-07-24T13:01:32.610Z,5.90
2023-07-24T13:04:01.069Z,4.20
2023-07-24T13:06:29.309Z,4.67
2023-07-24T13:08:57.852Z,6.50
2023-07-24T13:11:26.280Z,4.87
2023-07-24T13:13:54.150Z,5.07
2023-07-24T13:16:23.418Z,3.93
2023-07-24T13:18:51.622Z,6.77
2023-07-24T13:21:19.762Z,3.87
2023-07-24T13:23:47.901Z,4.07
2023-07-24T13:26:17.686Z,4.70
2023-07-24T13:28:45.752Z,5.87
2023-07-24T13:31:23.385Z,4.37
2023-07-24T13:33:51.609Z,6.37
2023-07-24T13:36:19.687Z,6.87
2023-07-24T13:38:47.712Z,10.70
2023-07-24T13:41:15.814Z,5.40
2023-07-24T13:43:44.296Z,6.67
2023-07-24T13:46:12.650Z,6.33
2023-07-24T13:48:41.010Z,7.17
2023-07-24T13:51:09.281Z,8.30
2023-07-24T13:53:38.249Z,5.80
2023-07-24T13:56:07.443Z,5.97
2023-07-24T13:58:35.894Z,6.60
2023-07-24T14:01:03.857Z,5.27
2023-07-24T14:03:31.958Z,6.10
2023-07-24T14:06:00.118Z,4.77
2023-07-24T14:08:28.082Z,6.30
2023-07-24T14:10:56.097Z,7.00
2023-07-24T14:13:24.433Z,4.40
2023-07-24T14:15:52.760Z,4.13
2023-07-24T14:18:21.246Z,4.33
2023-07-24T14:20:49.395Z,3.73
2023-07-24T14:23:17.364Z,4.83
2023-07-24T14:25:45.436Z,4.30
2023-07-24T14:28:13.436Z,2.70
2023-07-24T14:30:41.147Z,5.50
2023-07-24T14:33:09.639Z,3.93
2023-07-24T14:35:38.131Z,3.97
2023-07-24T14:38:06.176Z,5.03
2023-07-24T14:40:34.242Z,5.50
2023-07-24T14:43:04.772Z,4.70
2023-07-24T14:45:34.807Z,6.70
2023-07-24T14:48:02.983Z,3.30
2023-07-24T14:50:31.325Z,4.27
2023-07-24T14:52:59.353Z,3.20
2023-07-24T14:55:27.416Z,4.97
2023-07-24T14:57:55.552Z,3.40
2023-07-24T15:00:23.613Z,3.83
2023-07-24T15:02:51.597Z,6.60
2023-07-24T15:05:19.699Z,3.63
2023-07-24T15:07:48.412Z,4.33
2023-07-24T15:10:16.813Z,3.50
2023-07-24T15:12:44.646Z,4.13
2023-07-24T15:15:12.552Z,3.80
2023-07-24T15:17:40.723Z,3.43
2023-07-24T15:20:09.848Z,4.30
2023-07-24T15:22:37.747Z,4.20
2023-07-24T15:25:06.505Z,4.63
2023-07-24T15:27:34.647Z,6.10
2023-07-24T15:30:03.126Z,4.10
2023-07-24T15:32:31.167Z,4.87
2023-07-24T15:35:01.621Z,5.50
2023-07-24T15:37:33.062Z,6.63
2023-07-24T15:40:01.254Z,9.80
2023-07-24T15:42:29.112Z,12.10
2023-07-24T15:44:57.733Z,5.20
2023-07-24T15:47:27.444Z,4.97
2023-07-24T15:49:55.500Z,7.10
2023-07-24T15:52:23.654Z,6.07
2023-07-24T15:54:51.727Z,6.20
2023-07-24T15:57:19.898Z,7.40
2023-07-24T15:59:47.805Z,4.90
2023-07-24T16:02:16.210Z,6.87
2023-07-24T16:04:45.669Z,5.90
2023-07-24T16:07:13.830Z,8.47
2023-07-24T16:09:41.722Z,8.53
2023-07-24T16:12:09.908Z,7.33
2023-07-24T16:14:37.828Z,6.93
2023-07-24T16:17:08.961Z,7.10
2023-07-24T16:19:37.065Z,9.27
2023-07-24T16:22:05.481Z,7.10
2023-07-24T16:24:33.401Z,9.30
2023-07-24T16:27:04.453Z,8.23
2023-07-24T16:29:33.671Z,8.23
2023-07-24T16:32:01.495Z,7.43
2023-07-24T16:34:29.545Z,7.73
2023-07-24T16:36:57.516Z,5.87
2023-07-24T16:39:26.213Z,4.50
2023-07-24T16:41:54.011Z,3.93
2023-07-24T16:44:33.229Z,4.20
2023-07-24T16:49:36.253Z,2.90
2023-07-24T16:52:06.573Z,2.70
2023-07-24T16:54:37.030Z,3.40
2023-07-24T16:57:05.738Z,5.37
2023-07-24T16:59:33.638Z,3.33
2023-07-24T17:02:01.573Z,4.20
2023-07-24T17:04:29.447Z,4.50
2023-07-24T17:06:57.239Z,5.70
2023-07-24T17:09:25.280Z,11.87
2023-07-24T17:11:53.297Z,6.40
2023-07-24T17:14:21.514Z,7.90
2023-07-24T17:16:49.883Z,4.07
2023-07-24T17:19:20.632Z,3.93
2023-07-24T17:21:49.907Z,5.10
2023-07-24T17:24:17.894Z,4.53
2023-07-24T17:26:45.831Z,4.70
2023-07-24T17:29:13.725Z,7.80
2023-07-24T17:31:43.879Z,5.23
2023-07-24T17:34:11.900Z,6.30
2023-07-24T17:36:39.719Z,6.30
2023-07-24T17:39:07.592Z,6.87
2023-07-24T17:41:35.967Z,7.23
2023-07-24T17:44:04.033Z,5.60
2023-07-24T17:46:32.096Z,7.23
2023-07-24T17:48:59.823Z,11.67
2023-07-24T17:51:28.220Z,7.33
2023-07-24T17:53:58.259Z,6.47
2023-07-24T17:56:26.602Z,5.77
2023-07-24T17:58:54.471Z,7.50
2023-07-24T18:01:25.424Z,6.80
2023-07-24T18:03:53.474Z,7.23
2023-07-24T18:06:21.614Z,6.70
2023-07-24T18:08:49.717Z,6.93
2023-07-24T18:11:17.668Z,6.20
2023-07-24T18:13:45.618Z,9.00
2023-07-24T18:16:14.090Z,6.20
2023-07-24T18:18:42.167Z,7.00
2023-07-24T18:21:11.225Z,10.23
2023-07-24T18:23:39.501Z,6.57
2023-07-24T18:26:07.825Z,7.40
2023-07-24T18:28:35.861Z,9.70
2023-07-24T18:31:04.188Z,9.47
2023-07-24T18:33:32.387Z,9.73
2023-07-24T18:36:00.582Z,7.90
2023-07-24T18:38:28.611Z,9.10
2023-07-24T18:40:56.564Z,9.03
2023-07-24T18:43:24.695Z,8.40
2023-07-24T18:45:52.924Z,9.70
2023-07-24T18:48:20.913Z,16.30
2023-07-24T18:50:50.849Z,11.40
2023-07-24T18:53:19.048Z,9.40
2023-07-24T18:55:46.798Z,10.53
2023-07-24T18:58:15.290Z,10.50
2023-07-24T19:00:43.240Z,9.17
2023-07-24T19:03:12.389Z,11.67
2023-07-24T19:05:40.361Z,10.30
2023-07-24T19:08:08.348Z,9.20
2023-07-24T19:10:36.294Z,11.27
2023-07-24T19:13:04.313Z,13.13
2023-07-24T19:15:32.366Z,11.07
2023-07-24T19:18:00.429Z,11.40
2023-07-24T19:20:30.958Z,10.33
2023-07-24T19:22:59.124Z,10.83
2023-07-24T19:25:27.165Z,12.07
2023-07-24T19:27:55.087Z,10.00
2023-07-24T19:30:23.162Z,12.30
2023-07-24T19:32:51.940Z,11.13
2023-07-24T19:35:21.255Z,9.57
2023-07-24T19:37:49.351Z,7.77
2023-07-24T19:40:17.709Z,7.27
2023-07-24T19:42:46.358Z,7.70
2023-07-24T19:45:15.192Z,11.17
2023-07-24T19:47:43.478Z,7.13
2023-07-24T19:50:11.890Z,9.30
2023-07-24T19:52:39.845Z,7.57
2023-07-24T19:55:10.374Z,7.40
2023-07-24T19:57:40.156Z,9.40
2023-07-24T20:00:09.487Z,10.00
2023-07-24T20:02:37.951Z,9.50
2023-07-24T20:05:07.077Z,10.20
2023-07-24T20:07:35.638Z,10.70
2023-07-24T20:10:04.109Z,10.53
2023-07-24T20:12:32.160Z,10.43
2023-07-24T20:15:00.296Z,9.73
2023-07-24T20:17:28.248Z,7.87
2023-07-24T20:19:56.430Z,8.60
2023-07-24T20:22:24.590Z,6.40
2023-07-24T20:24:52.799Z,7.83
2023-07-24T20:27:21.078Z,7.70
2023-07-24T20:29:50.077Z,11.93
2023-07-24T20:32:18.046Z,9.47
2023-07-24T20:34:45.985Z,8.57
2023-07-24T20:37:14.147Z,7.10
2023-07-24T20:39:43.032Z,6.70
2023-07-24T20:42:11.397Z,7.70
2023-07-24T20:44:39.598Z,6.10
2023-07-24T20:47:09.741Z,7.67
2023-07-24T20:49:38.030Z,9.20
2023-07-24T20:52:07.354Z,9.17
2023-07-24T20:54:35.774Z,8.10
2023-07-24T20:57:04.347Z,4.90
2023-07-24T20:59:33.172Z,4.30
2023-07-24T21:02:01.528Z,6.93
2023-07-24T21:04:29.352Z,6.60
2023-07-24T21:06:57.658Z,12.97
2023-07-24T21:09:25.799Z,6.23
2023-07-24T21:11:54.098Z,5.00
2023-07-24T21:14:22.756Z,4.37
2023-07-24T21:16:51.094Z,9.20
2023-07-24T21:19:18.883Z,7.93
2023-07-24T21:21:47.208Z,4.07
2023-07-24T21:24:15.417Z,7.63
2023-07-24T21:26:43.915Z,7.00
2023-07-24T21:29:11.736Z,4.33
2023-07-24T21:31:40.292Z,8.67
2023-07-24T21:34:08.350Z,7.77
2023-07-24T21:36:36.968Z,6.83
2023-07-24T21:39:05.011Z,7.03
2023-07-24T21:41:33.708Z,7.93
2023-07-24T21:44:01.894Z,5.50
2023-07-24T21:46:30.043Z,5.30
2023-07-24T21:48:58.038Z,4.33
2023-07-24T21:51:26.376Z,6.00
2023-07-24T21:53:54.259Z,6.60
2023-07-24T21:56:22.202Z,10.33
2023-07-24T21:58:50.009Z,7.47
2023-07-24T22:01:21.438Z,5.47
2023-07-24T22:03:49.672Z,6.00
2023-07-24T22:06:17.442Z,5.30
2023-07-24T22:08:45.683Z,6.73
2023-07-24T22:11:16.896Z,5.37
2023-07-24T22:13:44.998Z,9.67
2023-07-24T22:16:13.583Z,5.87
2023-07-24T22:18:41.625Z,6.13
2023-07-24T22:21:10.617Z,6.23
2023-07-24T22:23:38.670Z,4.40
2023-07-24T22:26:06.693Z,5.17
2023-07-24T22:28:34.713Z,6.40
2023-07-24T22:31:13.126Z,8.27
2023-07-24T22:33:41.330Z,5.53
2023-07-24T22:36:09.349Z,5.40
2023-07-24T22:38:37.301Z,7.00
2023-07-24T22:41:13.459Z,8.60
2023-07-24T22:43:41.753Z,4.30
2023-07-24T22:46:10.143Z,5.37
2023-07-24T22:48:38.336Z,6.00
2023-07-24T22:51:06.167Z,4.67
2023-07-24T22:53:33.965Z,7.80
2023-07-24T22:56:01.941Z,13.33
2023-07-24T22:58:29.925Z,8.10
2023-07-24T23:00:57.972Z,6.27
2023-07-24T23:03:26.296Z,7.57
2023-07-24T23:05:54.211Z,7.47
2023-07-24T23:08:21.978Z,9.90
2023-07-24T23:10:50.896Z,6.77
2023-07-24T23:13:18.864Z,9.63
2023-07-24T23:15:46.661Z,9.43
2023-07-24T23:18:14.427Z,7.30
2023-07-24T23:20:42.505Z,14.83
2023-07-24T23:23:10.407Z,5.70
2023-07-24T23:25:38.400Z,8.00
2023-07-24T23:28:06.250Z,7.27
2023-07-24T23:30:44.061Z,6.90
2023-07-24T23:33:12.073Z,7.20
2023-07-24T23:35:40.289Z,11.60
2023-07-24T23:38:08.269Z,6.03
2023-07-24T23:40:36.347Z,6.87
2023-07-24T23:43:04.651Z,8.07
2023-07-24T23:45:36.861Z,14.03
2023-07-24T23:48:05.909Z,10.17
2023-07-24T23:50:38.482Z,8.53
2023-07-24T23:53:07.733Z,7.83
2023-07-24T23:55:35.736Z,6.63
2023-07-24T23:58:04.154Z,7.63
